Malta, Montana
Current Conditions -  °F | °C
As of 3:21 PM on Tuesday 25 Nov 2014 (Local Time) from KGGW Reporting Station
Overcast Overcast  
Wind Chill: 17°   Ceiling: 2500
Heat Index: 31°   Visibility: 10mi
Dew Point: 24°   Wind: 24mph
Humidity: 76%   Direction: 340°NNW
Pressure: 29.93"   Gusts: NA
Location:  48.36°N, 107.87°W
Report Text: KGGW 252221Z AUTO 34021KT 10SM FEW017 BKN025 OVC050 M01/M04 A2993 RMK AO2 PK WND 34026/2221 PRESRR T10061044
Loading
Personal Weather Stations






























Interactive Weather Map New forecast layout! Learn more

10-Day Weather Forecast

Advertisements
Track Severe Weather on mobile